Time;durP1;ratioP1;P1;durP2;ratioP2;P2;SDS_P1;SDS_P2;PMS_P1;PMS_P2;Temp;Humidity;BMP_temperature;BMP_pressure;BME280_temperature;BME280_humidity;BME280_pressure;Samples;Min_cycle;Max_cycle;Signal;HPM_P1;HPM_P2
2022/04/25 00:00:04;;;;;;;;;;;9.50;99.90;;;;;;5089502;28;19952;-75
2022/04/25 00:02:29;;;;;;;;;;;9.50;99.90;;;;;;5089510;28;20285;-76
2022/04/25 00:04:55;;;;;;;;;;;9.50;99.90;;;;;;5106140;28;19935;-76
2022/04/25 00:07:20;;;;;;;;;;;9.50;99.90;;;;;;5089106;28;19924;-76
2022/04/25 00:09:46;;;;;;;;;;;9.50;99.90;;;;;;5090245;28;19924;-76
2022/04/25 00:12:11;;;;;;;;;;;9.50;99.90;;;;;;5089340;28;20032;-76
2022/04/25 00:14:37;;;;;;;;;;;9.50;99.90;;;;;;5090219;28;19943;-76
2022/04/25 00:17:03;;;;;;;;;;;9.50;99.90;;;;;;5088500;28;20273;-76
2022/04/25 00:19:28;;;;;;;;;;;9.60;99.90;;;;;;5089876;28;19928;-76
2022/04/25 00:21:54;;;;;;;;;;;9.60;99.90;;;;;;5106424;28;19924;-76
2022/04/25 00:24:19;;;;;;;;;;;9.60;99.90;;;;;;5090197;28;20642;-76
2022/04/25 00:26:45;;;;;;;;;;;9.60;99.90;;;;;;5089202;28;19930;-76
2022/04/25 00:29:12;;;;;;;;;;;9.50;99.90;;;;;;5006733;28;19932;-76
2022/04/25 00:31:37;;;;;;;;;;;9.50;99.90;;;;;;5007569;28;19925;-76
2022/04/25 00:34:03;;;;;;;;;;;9.50;99.90;;;;;;5006253;28;20556;-74
2022/04/25 00:36:29;;;;;;;;;;;9.50;99.90;;;;;;5006704;28;19925;-74
2022/04/25 00:38:54;;;;;;;;;;;9.50;99.90;;;;;;5006810;28;19929;-74
2022/04/25 00:41:20;;;;;;;;;;;9.40;99.90;;;;;;5006501;28;19926;-74
2022/04/25 00:43:45;;;;;;;;;;;9.40;99.90;;;;;;5006690;28;21299;-74
2022/04/25 00:46:21;;;;;;;;;;;9.50;99.90;;;;;;5006664;28;19925;-74
2022/04/25 00:48:46;;;;;;;;;;;9.40;99.90;;;;;;5007942;28;19932;-74
2022/04/25 00:51:12;;;;;;;;;;;9.40;99.90;;;;;;5006378;28;19929;-74
2022/04/25 00:53:38;;;;;;;;;;;9.40;99.90;;;;;;5006883;28;20291;-74
2022/04/25 00:56:04;;;;;;;;;;;9.50;99.90;;;;;;5007802;28;20591;-76
2022/04/25 00:58:30;;;;;;;;;;;9.50;99.90;;;;;;5006236;28;20406;-76
2022/04/25 01:00:55;;;;;;;;;;;9.50;99.90;;;;;;5007519;28;19933;-76
2022/04/25 01:03:20;;;;;;;;;;;9.50;99.90;;;;;;5006063;28;19933;-76
2022/04/25 01:05:46;;;;;;;;;;;9.50;99.90;;;;;;5007517;28;19932;-76
2022/04/25 01:08:12;;;;;;;;;;;9.50;99.90;;;;;;5007487;28;19977;-76
2022/04/25 01:10:37;;;;;;;;;;;9.50;99.90;;;;;;5005809;28;20020;-76
2022/04/25 01:13:03;;;;;;;;;;;9.50;99.90;;;;;;5007290;28;19925;-76
2022/04/25 01:15:30;;;;;;;;;;;9.50;99.90;;;;;;5006137;28;20301;-76
2022/04/25 01:17:56;;;;;;;;;;;9.40;99.90;;;;;;5005144;28;19932;-76
2022/04/25 01:20:21;;;;;;;;;;;9.40;99.90;;;;;;5005645;28;19926;-76
2022/04/25 01:22:51;;;;;;;;;;;9.40;99.90;;;;;;5007434;28;19925;-76
2022/04/25 01:28:04;;;;;;;;;;;9.40;99.90;;;;;;5048783;28;19928;-76
2022/04/25 01:30:32;;;;;;;;;;;9.40;99.90;;;;;;5088555;28;19924;-76
2022/04/25 01:32:58;;;;;;;;;;;9.30;99.90;;;;;;5088252;28;20398;-76
2022/04/25 01:35:23;;;;;;;;;;;9.30;99.90;;;;;;5088261;28;19924;-76
2022/04/25 01:37:49;;;;;;;;;;;9.30;99.90;;;;;;5089090;28;19932;-76
2022/04/25 01:40:14;;;;;;;;;;;9.30;99.90;;;;;;5087960;28;19924;-76
2022/04/25 01:42:40;;;;;;;;;;;9.30;99.90;;;;;;5089582;28;19928;-76
2022/04/25 01:45:05;;;;;;;;;;;9.30;99.90;;;;;;5089746;28;19923;-76
2022/04/25 01:47:31;;;;;;;;;;;9.30;99.90;;;;;;5105105;28;19932;-76
2022/04/25 01:49:56;;;;;;;;;;;9.30;99.90;;;;;;5087947;28;19931;-76
2022/04/25 01:52:22;;;;;;;;;;;9.30;99.90;;;;;;5088127;28;20085;-74
2022/04/25 01:54:48;;;;;;;;;;;9.30;99.90;;;;;;5088274;28;19978;-74
2022/04/25 01:57:13;;;;;;;;;;;9.20;99.90;;;;;;5087949;28;19994;-75
2022/04/25 01:59:39;;;;;;;;;;;9.20;99.90;;;;;;5089202;28;19924;-75
2022/04/25 02:02:05;;;;;;;;;;;9.20;99.90;;;;;;5088241;28;20427;-75
2022/04/25 02:04:31;;;;;;;;;;;9.20;99.90;;;;;;5088571;28;20021;-75
2022/04/25 02:06:57;;;;;;;;;;;9.20;99.90;;;;;;5088507;28;20368;-74
2022/04/25 02:09:23;;;;;;;;;;;9.20;99.90;;;;;;5089485;28;19924;-74
2022/04/25 02:11:49;;;;;;;;;;;9.20;99.90;;;;;;5087935;28;19985;-75
2022/04/25 02:14:14;;;;;;;;;;;9.20;99.90;;;;;;5088097;28;19924;-75
2022/04/25 02:16:40;;;;;;;;;;;9.20;99.90;;;;;;5088378;28;20333;-74
2022/04/25 02:19:05;;;;;;;;;;;9.20;99.90;;;;;;5088077;28;19924;-74
2022/04/25 02:21:31;;;;;;;;;;;9.10;99.90;;;;;;5088867;28;19951;-74
2022/04/25 02:23:56;;;;;;;;;;;9.10;99.90;;;;;;5061305;28;19925;-75
2022/04/25 02:26:22;;;;;;;;;;;9.10;99.90;;;;;;5007074;28;19926;-75
2022/04/25 02:28:47;;;;;;;;;;;9.10;99.90;;;;;;5017107;28;20010;-75
2022/04/25 02:31:13;;;;;;;;;;;9.00;99.90;;;;;;5091902;28;20559;-74
2022/04/25 02:33:41;;;;;;;;;;;9.00;99.90;;;;;;5035260;28;19970;-75
2022/04/25 02:36:07;;;;;;;;;;;9.00;99.90;;;;;;5035973;28;20025;-75
2022/04/25 02:38:33;;;;;;;;;;;9.00;99.90;;;;;;5071337;28;20900;-75
2022/04/25 02:41:05;;;;;;;;;;;9.00;99.90;;;;;;5091634;28;19925;-74
2022/04/25 02:43:32;;;;;;;;;;;8.90;99.90;;;;;;5038010;28;19928;-75
2022/04/25 02:45:58;;;;;;;;;;;8.90;99.90;;;;;;5091772;28;20573;-75
2022/04/25 02:48:23;;;;;;;;;;;8.90;99.90;;;;;;5091345;28;19924;-75
2022/04/25 02:50:49;;;;;;;;;;;8.90;99.90;;;;;;5092137;28;20618;-75
2022/04/25 02:53:14;;;;;;;;;;;8.90;99.90;;;;;;5025543;28;19947;-75
2022/04/25 02:55:40;;;;;;;;;;;8.90;99.90;;;;;;5054214;28;20400;-75
2022/04/25 02:58:06;;;;;;;;;;;8.90;99.90;;;;;;5049694;28;19930;-74
2022/04/25 03:00:31;;;;;;;;;;;8.80;99.90;;;;;;4991480;28;20369;-75
2022/04/25 03:02:57;;;;;;;;;;;8.80;99.90;;;;;;5069504;28;20019;-75
2022/04/25 03:05:22;;;;;;;;;;;8.70;99.90;;;;;;5090938;28;19924;-75
2022/04/25 03:07:48;;;;;;;;;;;8.70;99.90;;;;;;5108125;28;19932;-75
2022/04/25 03:10:14;;;;;;;;;;;8.70;99.90;;;;;;5078453;28;19933;-75
2022/04/25 03:12:39;;;;;;;;;;;8.70;99.90;;;;;;5007694;28;19926;-75
2022/04/25 03:15:05;;;;;;;;;;;8.60;99.90;;;;;;5007639;28;19926;-75
2022/04/25 03:17:30;;;;;;;;;;;8.50;99.90;;;;;;5008801;28;20412;-75
2022/04/25 03:19:56;;;;;;;;;;;8.50;99.90;;;;;;5007835;28;19978;-75
2022/04/25 03:22:21;;;;;;;;;;;8.50;99.90;;;;;;5008101;28;19926;-74
2022/04/25 03:24:47;;;;;;;;;;;8.50;99.90;;;;;;5007603;28;19933;-75
2022/04/25 03:27:12;;;;;;;;;;;8.50;99.90;;;;;;5023443;28;19928;-74
2022/04/25 03:29:38;;;;;;;;;;;8.50;99.90;;;;;;5107399;28;19931;-74
2022/04/25 03:32:04;;;;;;;;;;;8.50;99.90;;;;;;5091756;28;19928;-75
2022/04/25 03:34:30;;;;;;;;;;;8.50;99.90;;;;;;5091980;28;19928;-74
2022/04/25 03:36:56;;;;;;;;;;;8.40;99.90;;;;;;5090401;28;19974;-74
2022/04/25 03:39:21;;;;;;;;;;;8.40;99.90;;;;;;5091219;28;19960;-74
2022/04/25 03:41:48;;;;;;;;;;;8.40;99.90;;;;;;5090279;28;20346;-75
2022/04/25 03:44:13;;;;;;;;;;;8.40;99.90;;;;;;5090233;28;19927;-75
2022/04/25 03:46:39;;;;;;;;;;;8.40;99.90;;;;;;5091677;28;20016;-75
2022/04/25 03:49:05;;;;;;;;;;;8.40;99.90;;;;;;5090497;28;19928;-75
2022/04/25 03:51:30;;;;;;;;;;;8.50;99.90;;;;;;5090555;28;19966;-75
2022/04/25 03:53:56;;;;;;;;;;;8.50;99.90;;;;;;5090805;28;19969;-74
2022/04/25 03:59:06;;;;;;;;;;;8.50;99.90;;;;;;5090337;28;19924;-75
2022/04/25 04:01:32;;;;;;;;;;;8.50;99.90;;;;;;5067801;28;19983;-75
2022/04/25 04:04:04;;;;;;;;;;;8.50;99.90;;;;;;5007611;28;19932;-75
2022/04/25 04:06:30;;;;;;;;;;;8.50;99.90;;;;;;5007106;28;20016;-75
2022/04/25 04:08:55;;;;;;;;;;;8.50;99.90;;;;;;5008054;28;20437;-75
2022/04/25 04:11:21;;;;;;;;;;;8.50;99.90;;;;;;5008060;28;20386;-76
2022/04/25 04:13:47;;;;;;;;;;;8.60;99.90;;;;;;5008069;28;19932;-75
2022/04/25 04:16:12;;;;;;;;;;;8.60;99.90;;;;;;4990355;28;20027;-75
2022/04/25 04:18:39;;;;;;;;;;;8.50;99.90;;;;;;5008280;28;20020;-75
2022/04/25 04:21:05;;;;;;;;;;;8.50;99.90;;;;;;5006640;28;20066;-75
2022/04/25 04:23:30;;;;;;;;;;;8.50;99.90;;;;;;5006798;28;19929;-75
2022/04/25 04:25:56;;;;;;;;;;;8.50;99.90;;;;;;4990345;28;19976;-75
2022/04/25 04:28:21;;;;;;;;;;;8.50;99.90;;;;;;5006649;28;19925;-75
2022/04/25 04:30:47;;;;;;;;;;;8.50;99.90;;;;;;5006234;28;19975;-75
2022/04/25 04:33:12;;;;;;;;;;;8.40;99.90;;;;;;5006791;28;19934;-75
2022/04/25 04:38:22;;;;;;;;;;;8.50;99.90;;;;;;5006958;28;20282;-75
2022/04/25 04:40:47;;;;;;;;;;;8.50;99.90;;;;;;5006668;28;19986;-75
2022/04/25 04:43:14;;;;;;;;;;;8.50;99.90;;;;;;5005598;28;19932;-75
2022/04/25 04:45:42;;;;;;;;;;;8.50;99.90;;;;;;5006838;28;19926;-75
2022/04/25 04:48:07;;;;;;;;;;;8.50;99.90;;;;;;5005809;28;19926;-75
2022/04/25 04:50:33;;;;;;;;;;;8.60;99.90;;;;;;5007911;28;19930;-75
2022/04/25 04:52:59;;;;;;;;;;;8.50;99.90;;;;;;5004800;28;20020;-75
2022/04/25 04:55:24;;;;;;;;;;;8.60;99.90;;;;;;5005762;28;19932;-75
2022/04/25 04:57:51;;;;;;;;;;;8.60;99.90;;;;;;5005648;28;19925;-75
2022/04/25 05:00:16;;;;;;;;;;;8.60;99.90;;;;;;5006919;28;19925;-75
2022/04/25 05:02:43;;;;;;;;;;;8.60;99.90;;;;;;5050577;28;19950;-75
2022/04/25 05:05:09;;;;;;;;;;;8.60;99.90;;;;;;5089149;28;19928;-75
2022/04/25 05:07:35;;;;;;;;;;;8.60;99.90;;;;;;5088087;28;19931;-76
2022/04/25 05:10:03;;;;;;;;;;;8.50;99.90;;;;;;5088299;28;19928;-75
2022/04/25 05:12:29;;;;;;;;;;;8.50;99.90;;;;;;5087106;28;19931;-75
2022/04/25 05:14:54;;;;;;;;;;;8.50;99.90;;;;;;5087872;28;20328;-75
2022/04/25 05:17:20;;;;;;;;;;;8.50;99.90;;;;;;5087951;28;19924;-75
2022/04/25 05:19:45;;;;;;;;;;;8.50;99.90;;;;;;5104747;28;19932;-75
2022/04/25 05:22:11;;;;;;;;;;;8.50;99.90;;;;;;5088615;28;20006;-75
2022/04/25 05:24:36;;;;;;;;;;;8.50;99.90;;;;;;5087540;28;19948;-75
2022/04/25 05:27:02;;;;;;;;;;;8.50;99.90;;;;;;5104930;28;19935;-75
2022/04/25 05:29:27;;;;;;;;;;;8.50;99.90;;;;;;5104690;28;19975;-75
2022/04/25 05:31:54;;;;;;;;;;;8.40;99.90;;;;;;5104418;28;19928;-75
2022/04/25 05:34:19;;;;;;;;;;;8.40;99.90;;;;;;5087254;28;19978;-75
2022/04/25 05:36:45;;;;;;;;;;;8.40;99.90;;;;;;5087601;28;19928;-75
2022/04/25 05:39:10;;;;;;;;;;;8.40;99.90;;;;;;5086999;28;19924;-75
2022/04/25 05:41:37;;;;;;;;;;;8.40;99.90;;;;;;5087990;28;19932;-75
2022/04/25 05:44:03;;;;;;;;;;;8.50;99.90;;;;;;5089279;28;19924;-75
2022/04/25 05:46:28;;;;;;;;;;;8.50;99.90;;;;;;5017049;28;19953;-75
2022/04/25 05:54:22;;;;;;;;;;;8.50;99.90;;;;;;4996477;28;20013;-77
2022/04/25 05:56:48;;;;;;;;;;;8.60;99.90;;;;;;4989187;28;19936;-74
2022/04/25 05:59:13;;;;;;;;;;;8.60;99.90;;;;;;5005309;28;19936;-75
2022/04/25 06:01:38;;;;;;;;;;;8.60;99.90;;;;;;5108487;27;19926;-75
2022/04/25 06:04:04;;;;;;;;;;;8.60;99.90;;;;;;5007716;28;19926;-75
2022/04/25 06:06:29;;;;;;;;;;;8.60;99.90;;;;;;5008961;28;19929;-75
2022/04/25 06:08:55;;;;;;;;;;;8.60;99.90;;;;;;5009846;28;19926;-75
2022/04/25 06:11:23;;;;;;;;;;;8.60;99.90;;;;;;5008138;28;19965;-75
2022/04/25 06:13:50;;;;;;;;;;;8.60;99.90;;;;;;4992405;28;19926;-75
2022/04/25 06:16:16;;;;;;;;;;;8.60;99.90;;;;;;5009999;28;19932;-75
2022/04/25 06:18:41;;;;;;;;;;;8.60;99.90;;;;;;5008595;28;19925;-75
2022/04/25 06:21:07;;;;;;;;;;;8.60;99.90;;;;;;5008380;28;19925;-75
2022/04/25 06:23:32;;;;;;;;;;;8.60;99.90;;;;;;5008797;28;20025;-75
2022/04/25 06:25:58;;;;;;;;;;;8.60;99.90;;;;;;5009120;28;20283;-75
2022/04/25 06:28:24;;;;;;;;;;;8.60;99.90;;;;;;5008557;28;19930;-75
2022/04/25 06:30:50;;;;;;;;;;;8.70;99.90;;;;;;5008462;28;19926;-75
2022/04/25 06:33:16;;;;;;;;;;;8.60;99.90;;;;;;5008729;28;19948;-75
2022/04/25 06:35:42;;;;;;;;;;;8.60;99.90;;;;;;5008104;28;19925;-75
2022/04/25 06:38:07;;;;;;;;;;;8.70;99.90;;;;;;5008075;28;19937;-75
2022/04/25 06:40:33;;;;;;;;;;;8.70;99.90;;;;;;5008832;28;20029;-75
2022/04/25 06:42:59;;;;;;;;;;;8.70;99.90;;;;;;5009842;28;19925;-75
2022/04/25 06:45:24;;;;;;;;;;;8.70;99.90;;;;;;5008546;28;19925;-75
2022/04/25 06:47:50;;;;;;;;;;;8.80;99.90;;;;;;5009194;28;19932;-75
2022/04/25 06:50:16;;;;;;;;;;;8.80;99.90;;;;;;5009684;28;19926;-75
2022/04/25 06:52:42;;;;;;;;;;;8.80;99.90;;;;;;5008485;28;19926;-75
2022/04/25 06:55:08;;;;;;;;;;;8.90;99.90;;;;;;5008076;28;19936;-75
2022/04/25 06:57:33;;;;;;;;;;;8.90;99.90;;;;;;5009330;28;19933;-75
2022/04/25 07:00:00;;;;;;;;;;;8.80;99.90;;;;;;5008290;28;19929;-75
2022/04/25 07:02:25;;;;;;;;;;;8.80;99.90;;;;;;4996700;28;19929;-75
2022/04/25 07:04:51;;;;;;;;;;;8.80;99.90;;;;;;4988568;28;19996;-75
2022/04/25 07:07:17;;;;;;;;;;;8.80;99.90;;;;;;4989746;28;20003;-75
2022/04/25 07:09:43;;;;;;;;;;;8.80;99.90;;;;;;4989695;28;19998;-75
2022/04/25 07:12:08;;;;;;;;;;;8.80;99.90;;;;;;5090313;28;20379;-75
2022/04/25 07:14:34;;;;;;;;;;;8.70;99.90;;;;;;4987705;28;19930;-75
2022/04/25 07:17:02;;;;;;;;;;;8.70;99.90;;;;;;4987879;28;19932;-75
2022/04/25 07:19:27;;;;;;;;;;;8.80;99.90;;;;;;5073903;28;19984;-75
2022/04/25 07:30:06;;;;;;;;;;;9.00;99.90;;;;;;4988137;28;19926;-75
2022/04/25 07:32:32;;;;;;;;;;;9.10;99.90;;;;;;5090773;28;19932;-75
2022/04/25 07:34:58;;;;;;;;;;;9.20;99.90;;;;;;4988136;28;20307;-75
2022/04/25 07:37:24;;;;;;;;;;;9.30;99.90;;;;;;4988472;28;19930;-75
2022/04/25 07:39:50;;;;;;;;;;;9.50;99.90;;;;;;4987673;28;19926;-75
2022/04/25 07:42:18;;;;;;;;;;;9.70;99.90;;;;;;4987309;28;19932;-75
2022/04/25 07:44:44;;;;;;;;;;;9.90;99.90;;;;;;4989013;28;19929;-75
2022/04/25 07:47:10;;;;;;;;;;;10.00;99.90;;;;;;5090073;28;19926;-75
2022/04/25 07:49:35;;;;;;;;;;;10.00;99.90;;;;;;4989258;28;20306;-75
2022/04/25 07:52:01;;;;;;;;;;;10.00;99.90;;;;;;5090303;28;19937;-76
2022/04/25 07:54:26;;;;;;;;;;;10.10;99.90;;;;;;4988038;28;19932;-75
2022/04/25 07:56:52;;;;;;;;;;;10.10;99.90;;;;;;4987081;28;19932;-76
2022/04/25 07:59:18;;;;;;;;;;;10.10;99.90;;;;;;5065665;28;20419;-76
2022/04/25 08:01:44;;;;;;;;;;;10.10;99.90;;;;;;5010385;28;19924;-76
2022/04/25 08:04:11;;;;;;;;;;;10.10;99.90;;;;;;5089795;28;19931;-76
2022/04/25 08:06:37;;;;;;;;;;;10.10;99.90;;;;;;5024364;28;19926;-76
2022/04/25 08:09:03;;;;;;;;;;;10.20;99.90;;;;;;4987253;28;20017;-76
2022/04/25 08:11:29;;;;;;;;;;;10.20;99.90;;;;;;4987716;28;19926;-75
2022/04/25 08:19:23;;;;;;;;;;;10.20;99.90;;;;;;4987732;28;20375;-75
2022/04/25 08:21:48;;;;;;;;;;;10.20;99.90;;;;;;4987183;28;19932;-76
2022/04/25 08:24:14;;;;;;;;;;;10.30;99.90;;;;;;4988633;28;21119;-76
2022/04/25 08:26:40;;;;;;;;;;;10.40;99.90;;;;;;4987056;28;20012;-76
2022/04/25 08:29:06;;;;;;;;;;;10.50;99.90;;;;;;4987292;28;20016;-76
2022/04/25 08:31:32;;;;;;;;;;;10.60;99.90;;;;;;5007639;28;20354;-76
2022/04/25 08:33:58;;;;;;;;;;;10.70;99.90;;;;;;5089328;28;19969;-76
2022/04/25 08:36:24;;;;;;;;;;;10.70;99.90;;;;;;5089480;28;19982;-76
2022/04/25 08:38:51;;;;;;;;;;;10.80;99.90;;;;;;5090678;28;19963;-76
2022/04/25 08:41:21;;;;;;;;;;;10.90;99.90;;;;;;5089238;28;19927;-76
2022/04/25 08:43:48;;;;;;;;;;;11.00;99.90;;;;;;5072564;28;19931;-76
2022/04/25 08:46:14;;;;;;;;;;;11.10;99.90;;;;;;5090309;28;19928;-76
2022/04/25 08:48:39;;;;;;;;;;;11.20;99.90;;;;;;5089649;28;19928;-76
2022/04/25 08:51:05;;;;;;;;;;;11.30;99.90;;;;;;5089055;28;20011;-76
2022/04/25 08:53:32;;;;;;;;;;;11.30;99.90;;;;;;5088901;28;19977;-76
2022/04/25 08:55:59;;;;;;;;;;;11.40;99.90;;;;;;5089994;28;19924;-76
2022/04/25 08:58:26;;;;;;;;;;;11.40;99.90;;;;;;5089208;28;19923;-76
2022/04/25 09:00:52;;;;;;;;;;;11.40;99.90;;;;;;5090399;28;20374;-75
2022/04/25 09:03:18;;;;;;;;;;;11.40;99.90;;;;;;5088979;28;19967;-75
2022/04/25 09:05:44;;;;;;;;;;;11.50;99.90;;;;;;5067516;28;19932;-75
2022/04/25 09:08:09;;;;;;;;;;;11.50;99.90;;;;;;4987575;28;19938;-75
2022/04/25 09:10:36;;;;;;;;;;;11.60;99.90;;;;;;4987765;28;19926;-75
2022/04/25 09:13:02;;;;;;;;;;;11.80;99.90;;;;;;4987674;28;20059;-75
2022/04/25 09:15:27;;;;;;;;;;;12.00;99.90;;;;;;4986626;28;20012;-75
2022/04/25 09:17:54;;;;;;;;;;;12.10;99.90;;;;;;4987326;28;20287;-75
2022/04/25 09:20:20;;;;;;;;;;;12.20;99.90;;;;;;4986435;28;19930;-75
2022/04/25 09:22:46;;;;;;;;;;;12.30;99.90;;;;;;4987815;28;19930;-75
2022/04/25 09:25:16;;;;;;;;;;;12.40;99.90;;;;;;4991599;28;19928;-75
2022/04/25 09:27:42;;;;;;;;;;;12.50;99.90;;;;;;5089242;28;19924;-75
2022/04/25 09:30:12;;;;;;;;;;;12.60;99.90;;;;;;5076076;28;19948;-75
2022/04/25 09:32:38;;;;;;;;;;;12.60;99.90;;;;;;5005876;28;19929;-75
2022/04/25 09:35:22;;;;;;;;;;;12.60;99.90;;;;;;5041902;28;20273;-75
2022/04/25 09:37:48;;;;;;;;;;;12.70;99.90;;;;;;5087575;28;19928;-75
2022/04/25 09:40:18;;;;;;;;;;;12.80;99.90;;;;;;5088667;28;19935;-75
2022/04/25 09:42:46;;;;;;;;;;;12.90;99.90;;;;;;5081307;28;19977;-75
2022/04/25 09:45:12;;;;;;;;;;;13.10;99.90;;;;;;5005567;28;19925;-75
2022/04/25 09:47:37;;;;;;;;;;;13.40;99.90;;;;;;5005684;28;19932;-75
2022/04/25 09:50:13;;;;;;;;;;;13.80;99.90;;;;;;5005490;28;19933;-75
2022/04/25 09:53:05;;;;;;;;;;;14.40;98.70;;;;;;5005737;28;20455;-75
2022/04/25 09:55:32;;;;;;;;;;;14.70;97.10;;;;;;5008230;28;19925;-75
2022/04/25 09:57:58;;;;;;;;;;;14.80;96.40;;;;;;5006364;28;19929;-75
2022/04/25 10:00:38;;;;;;;;;;;15.20;96.40;;;;;;5118877;27;20015;-75
2022/04/25 10:03:04;;;;;;;;;;;15.60;95.20;;;;;;5088180;28;19932;-75
2022/04/25 10:05:40;;;;;;;;;;;16.10;95.30;;;;;;5087855;28;19934;-75
2022/04/25 10:08:07;;;;;;;;;;;16.50;94.00;;;;;;5087541;28;19959;-76
2022/04/25 10:10:33;;;;;;;;;;;16.80;91.00;;;;;;5087693;28;20003;-76
2022/04/25 10:12:59;;;;;;;;;;;17.00;90.00;;;;;;5089045;28;20380;-76
2022/04/25 10:15:25;;;;;;;;;;;17.00;87.40;;;;;;5087805;28;20296;-75
2022/04/25 10:17:52;;;;;;;;;;;17.10;88.70;;;;;;5088060;28;20015;-75
2022/04/25 10:20:18;;;;;;;;;;;17.40;86.80;;;;;;5089161;28;19928;-75
2022/04/25 10:22:43;;;;;;;;;;;17.80;82.80;;;;;;5089192;28;19924;-75
2022/04/25 10:25:10;;;;;;;;;;;18.00;82.40;;;;;;5089267;28;19947;-76
2022/04/25 10:27:37;;;;;;;;;;;18.00;81.70;;;;;;5089333;28;19928;-75
2022/04/25 10:30:12;;;;;;;;;;;18.20;81.60;;;;;;5087524;28;19924;-75
2022/04/25 10:32:37;;;;;;;;;;;18.30;79.60;;;;;;5089128;28;19960;-75
2022/04/25 10:35:05;;;;;;;;;;;18.30;78.70;;;;;;5042831;28;19972;-75
2022/04/25 10:37:30;;;;;;;;;;;18.60;78.30;;;;;;5006873;28;19957;-76
2022/04/25 10:39:56;;;;;;;;;;;18.60;74.00;;;;;;5006334;28;20366;-75
2022/04/25 10:45:06;;;;;;;;;;;18.20;73.10;;;;;;5005827;28;19925;-75
2022/04/25 10:47:32;;;;;;;;;;;18.20;74.50;;;;;;5006172;28;20016;-75
2022/04/25 10:49:57;;;;;;;;;;;18.40;75.10;;;;;;5007213;28;20398;-75
2022/04/25 10:52:32;;;;;;;;;;;18.60;70.10;;;;;;5009158;28;20008;-75
2022/04/25 10:55:13;;;;;;;;;;;18.70;69.30;;;;;;5008027;28;20016;-75
2022/04/25 10:57:58;;;;;;;;;;;18.70;70.40;;;;;;5008322;28;19926;-75
2022/04/25 11:00:36;;;;;;;;;;;18.90;69.70;;;;;;5009222;28;20290;-76
2022/04/25 11:03:12;;;;;;;;;;;19.10;70.30;;;;;;5008189;28;19925;-76
2022/04/25 11:05:39;;;;;;;;;;;19.40;69.80;;;;;;5008501;28;20082;-76
2022/04/25 11:08:19;;;;;;;;;;;19.70;67.60;;;;;;5007751;28;19926;-76
2022/04/25 11:10:46;;;;;;;;;;;19.80;66.60;;;;;;5008390;28;19926;-76
2022/04/25 11:13:12;;;;;;;;;;;19.80;64.90;;;;;;5008871;28;19926;-76
2022/04/25 11:15:38;;;;;;;;;;;19.80;66.10;;;;;;5007758;28;20405;-76
2022/04/25 11:18:34;;;;;;;;;;;19.70;68.00;;;;;;5009048;28;19929;-76
2022/04/25 11:21:11;;;;;;;;;;;19.70;66.70;;;;;;5008059;28;19925;-75
2022/04/25 11:23:43;;;;;;;;;;;19.50;66.30;;;;;;5007032;28;20332;-75
2022/04/25 11:26:11;;;;;;;;;;;19.10;67.20;;;;;;5007014;28;19929;-76
2022/04/25 11:28:55;;;;;;;;;;;18.70;67.10;;;;;;5007014;28;19978;-75
2022/04/25 11:31:22;;;;;;;;;;;18.30;66.50;;;;;;5006931;28;19925;-75
2022/04/25 11:33:48;;;;;;;;;;;18.00;69.10;;;;;;5008125;28;19929;-76
2022/04/25 11:36:14;;;;;;;;;;;18.10;69.00;;;;;;5089693;28;20347;-76
2022/04/25 11:41:25;;;;;;;;;;;18.70;67.60;;;;;;5089903;28;20403;-75
2022/04/25 11:43:50;;;;;;;;;;;18.70;68.80;;;;;;5089371;28;19928;-75
2022/04/25 11:46:16;;;;;;;;;;;18.70;69.90;;;;;;5089290;28;20502;-74
2022/04/25 11:48:42;;;;;;;;;;;18.60;69.70;;;;;;5089536;28;19931;-75
2022/04/25 11:51:08;;;;;;;;;;;18.20;70.50;;;;;;5089588;28;19924;-74
2022/04/25 11:53:34;;;;;;;;;;;17.90;71.50;;;;;;5090223;28;20365;-74
2022/04/25 11:56:12;;;;;;;;;;;17.80;72.70;;;;;;5089039;28;20065;-74
2022/04/25 11:58:38;;;;;;;;;;;18.00;73.40;;;;;;5089194;28;19925;-74
2022/04/25 12:01:03;;;;;;;;;;;18.10;73.60;;;;;;5090070;28;19935;-75
2022/04/25 12:03:30;;;;;;;;;;;18.20;73.30;;;;;;5090643;28;20502;-74
2022/04/25 12:06:06;;;;;;;;;;;18.20;72.50;;;;;;5089882;28;19977;-75
2022/04/25 12:16:49;;;;;;;;;;;19.20;70.40;;;;;;4988971;28;20634;-74
2022/04/25 12:19:14;;;;;;;;;;;19.30;71.20;;;;;;5006190;28;19937;-75
2022/04/25 12:21:47;;;;;;;;;;;19.50;69.30;;;;;;5005966;28;20020;-74
2022/04/25 12:24:17;;;;;;;;;;;19.40;67.60;;;;;;5005758;28;20374;-74
2022/04/25 12:26:43;;;;;;;;;;;19.10;67.50;;;;;;5062060;28;19934;-75
2022/04/25 12:29:10;;;;;;;;;;;18.80;69.00;;;;;;5089926;28;20346;-74
2022/04/25 12:31:37;;;;;;;;;;;18.60;70.00;;;;;;5088390;28;20400;-73
2022/04/25 12:34:07;;;;;;;;;;;18.70;70.20;;;;;;5105729;28;20006;-75
2022/04/25 12:36:33;;;;;;;7.47;3.53;;;18.80;69.60;;;;;;5087842;28;19924;-74
2022/04/25 12:38:58;;;;;;;;;;;18.90;69.70;;;;;;5088304;28;20055;-74
2022/04/25 12:41:30;;;;;;;;;;;19.20;69.10;;;;;;5089942;28;20301;-75
2022/04/25 12:43:56;;;;;;;;;;;19.40;68.40;;;;;;5028911;28;19995;-75
2022/04/25 12:46:38;;;;;;;;;;;19.90;68.30;;;;;;5007075;28;19921;-75
2022/04/25 12:49:08;;;;;;;;;;;20.20;67.60;;;;;;5007026;28;19925;-74
2022/04/25 12:51:33;;;;;;;;;;;20.40;65.60;;;;;;5006447;28;19922;-75
2022/04/25 12:53:59;;;;;;;;;;;20.50;65.60;;;;;;5007959;28;19935;-75
2022/04/25 12:56:25;;;;;;;;;;;20.40;64.80;;;;;;5007529;28;19928;-75
2022/04/25 12:58:51;;;;;;;;;;;20.10;65.30;;;;;;5006011;28;19921;-75
2022/04/25 13:01:27;;;;;;;;;;;19.90;66.30;;;;;;5007489;28;20354;-75
2022/04/25 13:04:05;;;;;;;;;;;19.90;66.50;;;;;;5007641;28;19974;-75
2022/04/25 13:06:31;;;;;;;;;;;20.20;66.10;;;;;;5007533;28;20363;-75
2022/04/25 13:08:56;;;;;;;;;;;20.50;64.40;;;;;;5006599;28;19970;-75
2022/04/25 13:11:22;;;;;;;;;;;20.50;64.50;;;;;;5006344;28;19928;-75
2022/04/25 13:13:48;;;;;;;;;;;20.70;64.60;;;;;;5006210;28;19966;-75
2022/04/25 13:16:14;;;;;;;;;;;20.70;63.80;;;;;;5005844;28;19921;-75
2022/04/25 13:18:39;;;;;;;;;;;20.80;64.30;;;;;;5088057;28;19927;-75
2022/04/25 13:21:05;;;;;;;;;;;21.00;62.80;;;;;;5089928;28;19924;-75
2022/04/25 13:23:30;;;;;;;;;;;21.10;63.00;;;;;;5089558;28;19942;-75
2022/04/25 13:25:55;;;;;;;;;;;21.20;63.50;;;;;;5089935;28;19946;-75
2022/04/25 13:28:21;;;;;;;;;;;21.60;62.50;;;;;;5089990;28;19975;-75
2022/04/25 13:30:46;;;;;;;;;;;22.00;61.50;;;;;;5089931;28;19920;-75
2022/04/25 13:33:12;;;;;;;;;;;22.30;61.60;;;;;;5089436;28;19953;-75
2022/04/25 13:35:37;;;;;;;;;;;22.50;58.70;;;;;;5088523;28;20281;-75
2022/04/25 13:38:03;;;;;;;;;;;22.50;58.70;;;;;;5105569;28;19927;-75
2022/04/25 13:40:28;;;;;;;;;;;22.60;58.60;;;;;;5088512;28;20346;-75
2022/04/25 13:42:54;;;;;;;;;;;22.40;59.00;;;;;;5089778;28;19920;-75
2022/04/25 13:45:19;;;;;;;;;;;22.40;59.00;;;;;;5089317;28;20373;-75
2022/04/25 13:47:45;;;;;;;;;;;22.40;57.40;;;;;;5087488;28;19927;-75
2022/04/25 13:50:10;;;;;;;;;;;22.40;57.80;;;;;;5087408;28;19924;-75
2022/04/25 13:52:36;;;;;;;;;;;22.50;57.50;;;;;;5088888;28;20284;-76
2022/04/25 13:55:02;;;;;;;;;;;22.50;57.90;;;;;;5086922;28;19927;-76
2022/04/25 13:57:27;;;;;;;;;;;22.10;58.10;;;;;;5087250;28;19928;-76
2022/04/25 13:59:53;;;;;;;;;;;21.50;58.00;;;;;;5087108;28;19920;-76
2022/04/25 14:05:03;;;;;;;;;;;21.80;58.40;;;;;;5088312;28;19947;-76
2022/04/25 14:07:28;;;;;;;;;;;22.40;56.60;;;;;;5087358;28;20581;-76
2022/04/25 14:09:54;;;;;;;;;;;22.60;56.10;;;;;;5087020;28;19931;-76
2022/04/25 14:12:19;;;;;;;;;;;23.10;56.30;;;;;;5104224;28;19927;-76
2022/04/25 14:14:45;;;;;;;;;;;23.10;54.60;;;;;;5087293;28;19927;-76
2022/04/25 14:17:11;;;;;;;;;;;22.60;53.50;;;;;;5057664;28;19961;-76
2022/04/25 14:19:36;;;;;;;;;;;21.80;54.30;;;;;;5005266;28;20058;-76
2022/04/25 14:22:03;;;;;;;;;;;21.90;55.80;;;;;;5005644;28;20298;-75
2022/04/25 14:24:28;;;;;;;;;;;22.30;55.00;;;;;;5006220;28;19929;-75
2022/04/25 14:26:54;;;;;;;;;;;22.60;54.40;;;;;;5007556;28;19926;-76
2022/04/25 14:29:19;;;;;;;;;;;22.60;54.10;;;;;;5007760;28;19928;-75
2022/04/25 14:31:46;;;;;;;;;;;22.00;54.60;;;;;;5007809;28;20375;-76
2022/04/25 14:34:12;;;;;;;;;;;21.20;54.60;;;;;;5007812;28;19922;-76
2022/04/25 14:36:37;;;;;;;;;;;20.40;56.10;;;;;;5006997;28;20394;-75
2022/04/25 14:39:03;;;;;;;;;;;19.70;57.50;;;;;;5008888;28;19925;-75
2022/04/25 14:41:29;;;;;;;;;;;19.10;58.90;;;;;;5007830;28;19931;-76
2022/04/25 14:43:54;;;;;;;;;;;18.80;59.80;;;;;;5007999;28;20054;-75
2022/04/25 14:46:20;;;;;;;;;;;18.60;60.10;;;;;;5008341;28;19947;-75
2022/04/25 14:48:45;;;;;;;;;;;18.30;60.00;;;;;;5008456;28;20009;-75
2022/04/25 14:56:39;;;;;;;;;;;17.80;64.10;;;;;;5009376;28;20400;-75
2022/04/25 14:59:06;;;;;;;;;;;17.70;65.30;;;;;;5008549;28;19991;-75
2022/04/25 15:01:32;;;;;;;;;;;17.60;65.80;;;;;;5008013;28;19929;-75
2022/04/25 15:03:57;;;;;;;;;;;17.40;66.50;;;;;;5009406;28;20297;-75
2022/04/25 15:06:23;;;;;;;;;;;17.10;66.60;;;;;;5008161;28;19932;-75
2022/04/25 15:08:48;;;;;;;;;;;16.90;68.20;;;;;;5008710;28;20362;-76